sensor_id;sensor_type;location;lat;lon;timestamp;P1;durP1;ratioP1;P2;durP2;ratioP2
24663;SDS011;12791;50.992;13.788;2024-02-26T00:01:02;26.02;;;20.65;;
24663;SDS011;12791;50.992;13.788;2024-02-26T00:03:29;23.75;;;19.98;;
24663;SDS011;12791;50.992;13.788;2024-02-26T00:05:57;28.05;;;21.17;;
24663;SDS011;12791;50.992;13.788;2024-02-26T00:08:24;26.75;;;20.20;;
24663;SDS011;12791;50.992;13.788;2024-02-26T00:10:50;26.63;;;20.92;;
24663;SDS011;12791;50.992;13.788;2024-02-26T00:13:17;26.27;;;20.23;;
24663;SDS011;12791;50.992;13.788;2024-02-26T00:15:45;24.38;;;20.52;;
24663;SDS011;12791;50.992;13.788;2024-02-26T00:18:13;28.00;;;20.63;;
24663;SDS011;12791;50.992;13.788;2024-02-26T00:20:40;23.50;;;18.98;;
24663;SDS011;12791;50.992;13.788;2024-02-26T00:23:08;25.90;;;20.55;;
24663;SDS011;12791;50.992;13.788;2024-02-26T00:25:34;23.90;;;19.38;;
24663;SDS011;12791;50.992;13.788;2024-02-26T00:28:02;25.88;;;20.35;;
24663;SDS011;12791;50.992;13.788;2024-02-26T00:30:29;23.92;;;19.38;;
24663;SDS011;12791;50.992;13.788;2024-02-26T00:32:56;23.63;;;19.80;;
24663;SDS011;12791;50.992;13.788;2024-02-26T00:35:24;26.48;;;20.50;;
24663;SDS011;12791;50.992;13.788;2024-02-26T00:37:51;25.30;;;19.30;;
24663;SDS011;12791;50.992;13.788;2024-02-26T00:40:18;26.70;;;20.65;;
24663;SDS011;12791;50.992;13.788;2024-02-26T00:42:44;24.63;;;19.85;;
24663;SDS011;12791;50.992;13.788;2024-02-26T00:45:12;26.15;;;20.80;;
24663;SDS011;12791;50.992;13.788;2024-02-26T00:47:39;23.35;;;19.70;;
24663;SDS011;12791;50.992;13.788;2024-02-26T00:50:06;25.60;;;19.75;;
24663;SDS011;12791;50.992;13.788;2024-02-26T00:52:35;26.20;;;20.75;;
24663;SDS011;12791;50.992;13.788;2024-02-26T00:55:02;25.15;;;20.38;;
24663;SDS011;12791;50.992;13.788;2024-02-26T00:57:29;27.83;;;20.30;;
24663;SDS011;12791;50.992;13.788;2024-02-26T00:59:56;26.02;;;20.50;;
24663;SDS011;12791;50.992;13.788;2024-02-26T01:02:25;25.52;;;20.52;;
24663;SDS011;12791;50.992;13.788;2024-02-26T01:04:52;24.40;;;19.85;;
24663;SDS011;12791;50.992;13.788;2024-02-26T01:07:19;26.30;;;20.83;;
24663;SDS011;12791;50.992;13.788;2024-02-26T01:09:47;26.10;;;20.02;;
24663;SDS011;12791;50.992;13.788;2024-02-26T01:12:13;24.38;;;19.30;;
24663;SDS011;12791;50.992;13.788;2024-02-26T01:14:40;24.33;;;20.20;;
24663;SDS011;12791;50.992;13.788;2024-02-26T01:17:07;23.83;;;19.65;;
24663;SDS011;12791;50.992;13.788;2024-02-26T01:19:33;22.98;;;19.65;;
24663;SDS011;12791;50.992;13.788;2024-02-26T01:22:00;28.83;;;22.35;;
24663;SDS011;12791;50.992;13.788;2024-02-26T01:24:27;28.40;;;22.17;;
24663;SDS011;12791;50.992;13.788;2024-02-26T01:26:55;24.38;;;20.42;;
24663;SDS011;12791;50.992;13.788;2024-02-26T01:29:22;27.08;;;21.58;;
24663;SDS011;12791;50.992;13.788;2024-02-26T01:31:49;27.38;;;21.75;;
24663;SDS011;12791;50.992;13.788;2024-02-26T01:34:15;27.02;;;22.05;;
24663;SDS011;12791;50.992;13.788;2024-02-26T01:36:43;27.23;;;21.92;;
24663;SDS011;12791;50.992;13.788;2024-02-26T01:39:09;27.10;;;21.15;;
24663;SDS011;12791;50.992;13.788;2024-02-26T01:41:37;27.90;;;20.85;;
24663;SDS011;12791;50.992;13.788;2024-02-26T01:44:05;25.75;;;20.17;;
24663;SDS011;12791;50.992;13.788;2024-02-26T01:46:32;25.08;;;20.25;;
24663;SDS011;12791;50.992;13.788;2024-02-26T01:49:00;24.23;;;19.63;;
24663;SDS011;12791;50.992;13.788;2024-02-26T01:51:28;25.75;;;20.25;;
24663;SDS011;12791;50.992;13.788;2024-02-26T01:53:55;24.15;;;19.00;;
24663;SDS011;12791;50.992;13.788;2024-02-26T01:56:23;26.25;;;19.58;;
24663;SDS011;12791;50.992;13.788;2024-02-26T01:58:55;23.67;;;18.45;;
24663;SDS011;12791;50.992;13.788;2024-02-26T02:01:24;25.35;;;19.83;;
24663;SDS011;12791;50.992;13.788;2024-02-26T02:03:53;24.85;;;20.20;;
24663;SDS011;12791;50.992;13.788;2024-02-26T02:06:20;23.02;;;19.13;;
24663;SDS011;12791;50.992;13.788;2024-02-26T02:08:47;24.27;;;18.58;;
24663;SDS011;12791;50.992;13.788;2024-02-26T02:11:14;22.58;;;18.30;;
24663;SDS011;12791;50.992;13.788;2024-02-26T02:13:41;24.65;;;19.02;;
24663;SDS011;12791;50.992;13.788;2024-02-26T02:16:07;25.17;;;18.73;;
24663;SDS011;12791;50.992;13.788;2024-02-26T02:18:35;23.90;;;18.35;;
24663;SDS011;12791;50.992;13.788;2024-02-26T02:21:03;20.48;;;17.27;;
24663;SDS011;12791;50.992;13.788;2024-02-26T02:23:30;21.20;;;17.20;;
24663;SDS011;12791;50.992;13.788;2024-02-26T02:25:57;21.70;;;17.95;;
24663;SDS011;12791;50.992;13.788;2024-02-26T02:28:25;22.02;;;18.35;;
24663;SDS011;12791;50.992;13.788;2024-02-26T02:30:53;24.38;;;18.05;;
24663;SDS011;12791;50.992;13.788;2024-02-26T02:33:20;23.13;;;18.33;;
24663;SDS011;12791;50.992;13.788;2024-02-26T02:35:47;24.40;;;18.92;;
24663;SDS011;12791;50.992;13.788;2024-02-26T02:38:17;25.00;;;19.30;;
24663;SDS011;12791;50.992;13.788;2024-02-26T02:40:43;21.10;;;18.33;;
24663;SDS011;12791;50.992;13.788;2024-02-26T02:43:10;24.50;;;18.38;;
24663;SDS011;12791;50.992;13.788;2024-02-26T02:45:37;25.23;;;19.35;;
24663;SDS011;12791;50.992;13.788;2024-02-26T02:48:04;21.48;;;17.63;;
24663;SDS011;12791;50.992;13.788;2024-02-26T02:50:31;22.75;;;17.27;;
24663;SDS011;12791;50.992;13.788;2024-02-26T02:52:57;21.65;;;17.20;;
24663;SDS011;12791;50.992;13.788;2024-02-26T02:55:25;28.05;;;18.48;;
24663;SDS011;12791;50.992;13.788;2024-02-26T02:57:52;21.80;;;17.08;;
24663;SDS011;12791;50.992;13.788;2024-02-26T03:00:19;21.65;;;16.83;;
24663;SDS011;12791;50.992;13.788;2024-02-26T03:02:47;21.85;;;16.70;;
24663;SDS011;12791;50.992;13.788;2024-02-26T03:05:14;21.65;;;17.85;;
24663;SDS011;12791;50.992;13.788;2024-02-26T03:07:41;22.42;;;17.23;;
24663;SDS011;12791;50.992;13.788;2024-02-26T03:10:08;23.23;;;17.00;;
24663;SDS011;12791;50.992;13.788;2024-02-26T03:12:36;20.35;;;17.45;;
24663;SDS011;12791;50.992;13.788;2024-02-26T03:15:03;22.48;;;18.05;;
24663;SDS011;12791;50.992;13.788;2024-02-26T03:17:29;21.10;;;17.10;;
24663;SDS011;12791;50.992;13.788;2024-02-26T03:19:56;24.70;;;17.67;;
24663;SDS011;12791;50.992;13.788;2024-02-26T03:22:23;20.77;;;16.58;;
24663;SDS011;12791;50.992;13.788;2024-02-26T03:24:49;20.33;;;17.05;;
24663;SDS011;12791;50.992;13.788;2024-02-26T03:27:16;21.92;;;17.63;;
24663;SDS011;12791;50.992;13.788;2024-02-26T03:29:44;20.08;;;16.27;;
24663;SDS011;12791;50.992;13.788;2024-02-26T03:32:11;22.77;;;17.45;;
24663;SDS011;12791;50.992;13.788;2024-02-26T03:34:37;23.83;;;17.67;;
24663;SDS011;12791;50.992;13.788;2024-02-26T03:37:05;19.88;;;16.20;;
24663;SDS011;12791;50.992;13.788;2024-02-26T03:39:32;22.17;;;17.63;;
24663;SDS011;12791;50.992;13.788;2024-02-26T03:41:59;21.10;;;16.77;;
24663;SDS011;12791;50.992;13.788;2024-02-26T03:44:25;20.35;;;16.05;;
24663;SDS011;12791;50.992;13.788;2024-02-26T03:46:53;22.40;;;16.45;;
24663;SDS011;12791;50.992;13.788;2024-02-26T03:49:20;21.85;;;16.70;;
24663;SDS011;12791;50.992;13.788;2024-02-26T03:51:47;21.80;;;17.27;;
24663;SDS011;12791;50.992;13.788;2024-02-26T03:54:14;19.83;;;16.60;;
24663;SDS011;12791;50.992;13.788;2024-02-26T03:56:40;20.98;;;17.05;;
24663;SDS011;12791;50.992;13.788;2024-02-26T03:59:07;23.25;;;16.52;;
24663;SDS011;12791;50.992;13.788;2024-02-26T04:01:34;20.73;;;17.27;;
24663;SDS011;12791;50.992;13.788;2024-02-26T04:04:01;21.67;;;16.65;;
24663;SDS011;12791;50.992;13.788;2024-02-26T04:06:28;19.73;;;16.80;;
24663;SDS011;12791;50.992;13.788;2024-02-26T04:08:55;21.80;;;17.02;;
24663;SDS011;12791;50.992;13.788;2024-02-26T04:11:22;20.58;;;16.85;;
24663;SDS011;12791;50.992;13.788;2024-02-26T04:13:48;24.45;;;17.50;;
24663;SDS011;12791;50.992;13.788;2024-02-26T04:16:17;22.83;;;16.85;;
24663;SDS011;12791;50.992;13.788;2024-02-26T04:18:43;22.38;;;16.75;;
24663;SDS011;12791;50.992;13.788;2024-02-26T04:21:11;21.92;;;16.10;;
24663;SDS011;12791;50.992;13.788;2024-02-26T04:23:38;19.70;;;15.70;;
24663;SDS011;12791;50.992;13.788;2024-02-26T04:26:05;19.40;;;15.90;;
24663;SDS011;12791;50.992;13.788;2024-02-26T04:28:31;20.73;;;16.70;;
24663;SDS011;12791;50.992;13.788;2024-02-26T04:30:58;20.88;;;16.67;;
24663;SDS011;12791;50.992;13.788;2024-02-26T04:33:24;21.15;;;15.90;;
24663;SDS011;12791;50.992;13.788;2024-02-26T04:35:51;19.00;;;15.38;;
24663;SDS011;12791;50.992;13.788;2024-02-26T04:38:20;19.30;;;15.82;;
24663;SDS011;12791;50.992;13.788;2024-02-26T04:40:47;23.25;;;16.05;;
24663;SDS011;12791;50.992;13.788;2024-02-26T04:43:14;23.95;;;16.85;;
24663;SDS011;12791;50.992;13.788;2024-02-26T04:45:42;20.95;;;16.52;;
24663;SDS011;12791;50.992;13.788;2024-02-26T04:48:09;22.58;;;16.75;;
24663;SDS011;12791;50.992;13.788;2024-02-26T04:50:35;20.30;;;14.95;;
24663;SDS011;12791;50.992;13.788;2024-02-26T04:53:02;19.02;;;14.73;;
24663;SDS011;12791;50.992;13.788;2024-02-26T04:55:30;19.67;;;15.80;;
24663;SDS011;12791;50.992;13.788;2024-02-26T04:57:57;20.63;;;16.38;;
24663;SDS011;12791;50.992;13.788;2024-02-26T05:00:24;21.48;;;16.33;;
24663;SDS011;12791;50.992;13.788;2024-02-26T05:02:50;20.13;;;16.25;;
24663;SDS011;12791;50.992;13.788;2024-02-26T05:05:17;20.90;;;15.25;;
24663;SDS011;12791;50.992;13.788;2024-02-26T05:07:44;20.50;;;16.27;;
24663;SDS011;12791;50.992;13.788;2024-02-26T05:10:10;21.80;;;16.65;;
24663;SDS011;12791;50.992;13.788;2024-02-26T05:12:38;21.23;;;16.52;;
24663;SDS011;12791;50.992;13.788;2024-02-26T05:15:08;19.63;;;15.60;;
24663;SDS011;12791;50.992;13.788;2024-02-26T05:17:35;21.10;;;16.10;;
24663;SDS011;12791;50.992;13.788;2024-02-26T05:20:01;19.88;;;15.10;;
24663;SDS011;12791;50.992;13.788;2024-02-26T05:22:28;21.25;;;15.88;;
24663;SDS011;12791;50.992;13.788;2024-02-26T05:24:55;18.55;;;14.60;;
24663;SDS011;12791;50.992;13.788;2024-02-26T05:27:22;21.83;;;16.23;;
24663;SDS011;12791;50.992;13.788;2024-02-26T05:29:50;20.33;;;14.77;;
24663;SDS011;12791;50.992;13.788;2024-02-26T05:32:19;22.63;;;16.17;;
24663;SDS011;12791;50.992;13.788;2024-02-26T05:34:45;18.88;;;15.05;;
24663;SDS011;12791;50.992;13.788;2024-02-26T05:37:12;18.33;;;14.55;;
24663;SDS011;12791;50.992;13.788;2024-02-26T05:39:38;18.27;;;13.95;;
24663;SDS011;12791;50.992;13.788;2024-02-26T05:42:05;21.98;;;15.13;;
24663;SDS011;12791;50.992;13.788;2024-02-26T05:44:34;19.92;;;14.40;;
24663;SDS011;12791;50.992;13.788;2024-02-26T05:47:02;19.50;;;14.55;;
24663;SDS011;12791;50.992;13.788;2024-02-26T05:49:28;19.10;;;13.95;;
24663;SDS011;12791;50.992;13.788;2024-02-26T05:51:55;19.70;;;14.15;;
24663;SDS011;12791;50.992;13.788;2024-02-26T05:54:22;19.08;;;13.88;;
24663;SDS011;12791;50.992;13.788;2024-02-26T05:56:49;20.60;;;15.73;;
24663;SDS011;12791;50.992;13.788;2024-02-26T05:59:15;19.33;;;14.18;;
24663;SDS011;12791;50.992;13.788;2024-02-26T06:01:42;21.55;;;15.20;;
24663;SDS011;12791;50.992;13.788;2024-02-26T06:04:10;20.27;;;13.95;;
24663;SDS011;12791;50.992;13.788;2024-02-26T06:06:37;18.05;;;13.13;;
24663;SDS011;12791;50.992;13.788;2024-02-26T06:09:05;16.52;;;12.52;;
24663;SDS011;12791;50.992;13.788;2024-02-26T06:11:32;15.27;;;11.93;;
24663;SDS011;12791;50.992;13.788;2024-02-26T06:13:58;16.63;;;12.52;;
24663;SDS011;12791;50.992;13.788;2024-02-26T06:16:25;17.85;;;12.73;;
24663;SDS011;12791;50.992;13.788;2024-02-26T06:18:52;19.10;;;12.77;;
24663;SDS011;12791;50.992;13.788;2024-02-26T06:21:20;17.20;;;12.93;;
24663;SDS011;12791;50.992;13.788;2024-02-26T06:23:47;13.23;;;10.85;;
24663;SDS011;12791;50.992;13.788;2024-02-26T06:26:14;13.98;;;11.82;;
24663;SDS011;12791;50.992;13.788;2024-02-26T06:28:41;15.48;;;12.40;;
24663;SDS011;12791;50.992;13.788;2024-02-26T06:31:07;18.92;;;12.68;;
24663;SDS011;12791;50.992;13.788;2024-02-26T06:33:34;17.25;;;12.48;;
24663;SDS011;12791;50.992;13.788;2024-02-26T06:36:01;16.48;;;11.85;;
24663;SDS011;12791;50.992;13.788;2024-02-26T06:38:29;15.10;;;11.38;;
24663;SDS011;12791;50.992;13.788;2024-02-26T06:40:56;16.15;;;11.48;;
24663;SDS011;12791;50.992;13.788;2024-02-26T06:43:23;12.82;;;10.82;;
24663;SDS011;12791;50.992;13.788;2024-02-26T06:45:49;17.42;;;11.68;;
24663;SDS011;12791;50.992;13.788;2024-02-26T06:48:16;15.25;;;11.93;;
24663;SDS011;12791;50.992;13.788;2024-02-26T06:50:42;16.50;;;11.68;;
24663;SDS011;12791;50.992;13.788;2024-02-26T06:53:09;16.40;;;11.55;;
24663;SDS011;12791;50.992;13.788;2024-02-26T06:55:37;17.38;;;12.20;;
24663;SDS011;12791;50.992;13.788;2024-02-26T06:58:05;14.93;;;11.50;;
24663;SDS011;12791;50.992;13.788;2024-02-26T07:00:32;15.98;;;11.93;;
24663;SDS011;12791;50.992;13.788;2024-02-26T07:02:59;14.18;;;10.73;;
24663;SDS011;12791;50.992;13.788;2024-02-26T07:05:25;12.60;;;10.93;;
24663;SDS011;12791;50.992;13.788;2024-02-26T07:07:52;16.83;;;11.50;;
24663;SDS011;12791;50.992;13.788;2024-02-26T07:10:19;13.38;;;10.68;;
24663;SDS011;12791;50.992;13.788;2024-02-26T07:12:47;17.05;;;11.23;;
24663;SDS011;12791;50.992;13.788;2024-02-26T07:15:14;12.90;;;10.05;;
24663;SDS011;12791;50.992;13.788;2024-02-26T07:17:41;15.77;;;10.48;;
24663;SDS011;12791;50.992;13.788;2024-02-26T07:20:12;12.57;;;10.20;;
24663;SDS011;12791;50.992;13.788;2024-02-26T07:22:38;15.68;;;11.90;;
24663;SDS011;12791;50.992;13.788;2024-02-26T07:25:07;14.75;;;11.02;;
24663;SDS011;12791;50.992;13.788;2024-02-26T07:27:38;14.38;;;10.65;;
24663;SDS011;12791;50.992;13.788;2024-02-26T07:30:07;17.48;;;11.15;;
24663;SDS011;12791;50.992;13.788;2024-02-26T07:32:34;17.17;;;11.63;;
24663;SDS011;12791;50.992;13.788;2024-02-26T07:35:00;17.95;;;11.13;;
24663;SDS011;12791;50.992;13.788;2024-02-26T07:37:27;15.40;;;11.55;;
24663;SDS011;12791;50.992;13.788;2024-02-26T07:39:54;15.50;;;11.52;;
24663;SDS011;12791;50.992;13.788;2024-02-26T07:42:20;16.42;;;12.55;;
24663;SDS011;12791;50.992;13.788;2024-02-26T07:44:47;15.50;;;11.25;;
24663;SDS011;12791;50.992;13.788;2024-02-26T07:47:15;15.27;;;11.00;;
24663;SDS011;12791;50.992;13.788;2024-02-26T07:49:41;15.88;;;11.30;;
24663;SDS011;12791;50.992;13.788;2024-02-26T07:52:08;15.15;;;10.50;;
24663;SDS011;12791;50.992;13.788;2024-02-26T07:54:35;16.65;;;10.63;;
24663;SDS011;12791;50.992;13.788;2024-02-26T07:57:01;14.13;;;11.05;;
24663;SDS011;12791;50.992;13.788;2024-02-26T07:59:30;17.73;;;11.10;;
24663;SDS011;12791;50.992;13.788;2024-02-26T08:01:57;16.92;;;10.98;;
24663;SDS011;12791;50.992;13.788;2024-02-26T08:04:25;14.52;;;10.70;;
24663;SDS011;12791;50.992;13.788;2024-02-26T08:06:52;16.52;;;11.27;;
24663;SDS011;12791;50.992;13.788;2024-02-26T08:09:19;16.58;;;10.32;;
24663;SDS011;12791;50.992;13.788;2024-02-26T08:11:45;14.57;;;11.05;;
24663;SDS011;12791;50.992;13.788;2024-02-26T08:14:12;16.40;;;11.43;;
24663;SDS011;12791;50.992;13.788;2024-02-26T08:16:38;14.93;;;10.82;;
24663;SDS011;12791;50.992;13.788;2024-02-26T08:19:05;14.40;;;10.60;;
24663;SDS011;12791;50.992;13.788;2024-02-26T08:21:33;14.90;;;10.93;;
24663;SDS011;12791;50.992;13.788;2024-02-26T08:24:01;13.80;;;10.25;;
24663;SDS011;12791;50.992;13.788;2024-02-26T08:26:28;15.10;;;10.35;;
24663;SDS011;12791;50.992;13.788;2024-02-26T08:28:55;14.10;;;10.85;;
24663;SDS011;12791;50.992;13.788;2024-02-26T08:31:22;14.13;;;11.02;;
24663;SDS011;12791;50.992;13.788;2024-02-26T08:33:49;16.10;;;11.73;;
24663;SDS011;12791;50.992;13.788;2024-02-26T08:36:16;14.93;;;11.63;;
24663;SDS011;12791;50.992;13.788;2024-02-26T08:38:44;13.95;;;11.43;;
24663;SDS011;12791;50.992;13.788;2024-02-26T08:41:10;13.90;;;11.05;;
24663;SDS011;12791;50.992;13.788;2024-02-26T08:43:38;13.50;;;10.95;;
24663;SDS011;12791;50.992;13.788;2024-02-26T08:46:07;16.55;;;12.23;;
24663;SDS011;12791;50.992;13.788;2024-02-26T08:48:34;14.15;;;11.05;;
24663;SDS011;12791;50.992;13.788;2024-02-26T08:51:04;16.33;;;11.90;;
24663;SDS011;12791;50.992;13.788;2024-02-26T08:53:31;14.40;;;11.13;;
24663;SDS011;12791;50.992;13.788;2024-02-26T08:55:59;15.15;;;12.10;;
24663;SDS011;12791;50.992;13.788;2024-02-26T08:58:25;18.88;;;13.13;;
24663;SDS011;12791;50.992;13.788;2024-02-26T09:00:53;17.83;;;13.73;;
24663;SDS011;12791;50.992;13.788;2024-02-26T09:03:19;16.23;;;11.98;;
24663;SDS011;12791;50.992;13.788;2024-02-26T09:05:46;19.80;;;13.90;;
24663;SDS011;12791;50.992;13.788;2024-02-26T09:08:13;17.23;;;12.85;;
24663;SDS011;12791;50.992;13.788;2024-02-26T09:10:39;18.98;;;13.02;;
24663;SDS011;12791;50.992;13.788;2024-02-26T09:13:07;17.80;;;13.30;;
24663;SDS011;12791;50.992;13.788;2024-02-26T09:15:34;17.17;;;13.43;;
24663;SDS011;12791;50.992;13.788;2024-02-26T09:18:01;20.00;;;13.60;;
24663;SDS011;12791;50.992;13.788;2024-02-26T09:20:28;21.17;;;14.57;;
24663;SDS011;12791;50.992;13.788;2024-02-26T09:22:54;17.45;;;13.13;;
24663;SDS011;12791;50.992;13.788;2024-02-26T09:25:21;18.70;;;13.40;;
24663;SDS011;12791;50.992;13.788;2024-02-26T09:27:47;21.73;;;14.85;;
24663;SDS011;12791;50.992;13.788;2024-02-26T09:30:15;18.20;;;12.85;;
24663;SDS011;12791;50.992;13.788;2024-02-26T09:32:45;15.50;;;12.52;;
24663;SDS011;12791;50.992;13.788;2024-02-26T09:35:12;19.40;;;13.43;;
24663;SDS011;12791;50.992;13.788;2024-02-26T09:37:39;19.15;;;12.40;;
24663;SDS011;12791;50.992;13.788;2024-02-26T09:40:06;16.42;;;11.15;;
24663;SDS011;12791;50.992;13.788;2024-02-26T09:42:35;16.95;;;12.40;;
24663;SDS011;12791;50.992;13.788;2024-02-26T09:45:03;18.45;;;13.05;;
24663;SDS011;12791;50.992;13.788;2024-02-26T09:47:34;21.42;;;13.25;;
24663;SDS011;12791;50.992;13.788;2024-02-26T09:50:03;19.88;;;12.85;;
24663;SDS011;12791;50.992;13.788;2024-02-26T09:52:34;17.02;;;12.55;;
24663;SDS011;12791;50.992;13.788;2024-02-26T09:55:04;16.33;;;12.10;;
24663;SDS011;12791;50.992;13.788;2024-02-26T09:57:31;16.83;;;11.82;;
24663;SDS011;12791;50.992;13.788;2024-02-26T09:59:58;16.95;;;12.77;;
24663;SDS011;12791;50.992;13.788;2024-02-26T10:02:26;14.35;;;11.55;;
24663;SDS011;12791;50.992;13.788;2024-02-26T10:04:56;17.20;;;13.32;;
24663;SDS011;12791;50.992;13.788;2024-02-26T10:07:26;15.80;;;11.40;;
24663;SDS011;12791;50.992;13.788;2024-02-26T10:09:55;17.45;;;12.35;;
24663;SDS011;12791;50.992;13.788;2024-02-26T10:12:22;17.00;;;13.40;;
24663;SDS011;12791;50.992;13.788;2024-02-26T10:14:50;17.50;;;12.13;;
24663;SDS011;12791;50.992;13.788;2024-02-26T10:17:17;16.52;;;12.05;;
24663;SDS011;12791;50.992;13.788;2024-02-26T10:19:45;19.92;;;13.07;;
24663;SDS011;12791;50.992;13.788;2024-02-26T10:22:13;17.23;;;12.75;;
24663;SDS011;12791;50.992;13.788;2024-02-26T10:24:39;19.10;;;13.25;;
24663;SDS011;12791;50.992;13.788;2024-02-26T10:27:06;16.30;;;12.13;;
24663;SDS011;12791;50.992;13.788;2024-02-26T10:29:34;16.38;;;12.13;;
24663;SDS011;12791;50.992;13.788;2024-02-26T10:32:01;16.92;;;12.40;;
24663;SDS011;12791;50.992;13.788;2024-02-26T10:34:27;16.65;;;12.73;;
24663;SDS011;12791;50.992;13.788;2024-02-26T10:36:54;16.38;;;12.43;;
24663;SDS011;12791;50.992;13.788;2024-02-26T10:39:22;16.25;;;11.88;;
24663;SDS011;12791;50.992;13.788;2024-02-26T10:41:49;17.02;;;12.57;;
24663;SDS011;12791;50.992;13.788;2024-02-26T10:44:16;16.40;;;12.13;;
24663;SDS011;12791;50.992;13.788;2024-02-26T10:46:43;15.30;;;12.10;;
24663;SDS011;12791;50.992;13.788;2024-02-26T10:49:13;16.55;;;12.40;;
24663;SDS011;12791;50.992;13.788;2024-02-26T10:51:43;15.45;;;11.77;;
24663;SDS011;12791;50.992;13.788;2024-02-26T10:54:12;18.20;;;12.68;;
24663;SDS011;12791;50.992;13.788;2024-02-26T10:56:43;16.83;;;13.27;;
24663;SDS011;12791;50.992;13.788;2024-02-26T10:59:13;18.23;;;12.32;;
24663;SDS011;12791;50.992;13.788;2024-02-26T11:01:45;14.77;;;12.10;;
24663;SDS011;12791;50.992;13.788;2024-02-26T11:04:14;16.48;;;11.90;;
24663;SDS011;12791;50.992;13.788;2024-02-26T11:06:42;17.23;;;12.82;;
24663;SDS011;12791;50.992;13.788;2024-02-26T11:09:09;16.77;;;12.20;;
24663;SDS011;12791;50.992;13.788;2024-02-26T11:11:39;17.13;;;12.75;;
24663;SDS011;12791;50.992;13.788;2024-02-26T11:14:08;14.13;;;11.88;;
24663;SDS011;12791;50.992;13.788;2024-02-26T11:16:35;16.30;;;12.48;;
24663;SDS011;12791;50.992;13.788;2024-02-26T11:19:05;16.95;;;11.82;;
24663;SDS011;12791;50.992;13.788;2024-02-26T11:21:34;14.85;;;11.88;;
24663;SDS011;12791;50.992;13.788;2024-02-26T11:24:06;15.77;;;12.15;;
24663;SDS011;12791;50.992;13.788;2024-02-26T11:26:34;18.10;;;12.85;;
24663;SDS011;12791;50.992;13.788;2024-02-26T11:29:05;17.45;;;13.82;;
24663;SDS011;12791;50.992;13.788;2024-02-26T11:31:36;14.82;;;12.32;;
24663;SDS011;12791;50.992;13.788;2024-02-26T11:34:04;14.75;;;12.20;;
24663;SDS011;12791;50.992;13.788;2024-02-26T11:36:32;16.63;;;12.70;;
24663;SDS011;12791;50.992;13.788;2024-02-26T11:38:59;15.18;;;12.18;;
24663;SDS011;12791;50.992;13.788;2024-02-26T11:41:25;16.30;;;12.70;;
24663;SDS011;12791;50.992;13.788;2024-02-26T11:43:53;17.25;;;12.30;;
24663;SDS011;12791;50.992;13.788;2024-02-26T11:46:27;15.85;;;11.90;;
24663;SDS011;12791;50.992;13.788;2024-02-26T11:48:58;16.35;;;11.98;;
24663;SDS011;12791;50.992;13.788;2024-02-26T11:51:26;20.42;;;13.07;;
24663;SDS011;12791;50.992;13.788;2024-02-26T11:53:54;14.38;;;12.20;;
24663;SDS011;12791;50.992;13.788;2024-02-26T11:56:22;17.40;;;12.18;;
24663;SDS011;12791;50.992;13.788;2024-02-26T11:58:58;14.75;;;11.52;;
24663;SDS011;12791;50.992;13.788;2024-02-26T12:01:46;17.85;;;12.95;;
24663;SDS011;12791;50.992;13.788;2024-02-26T12:04:14;14.55;;;12.35;;
24663;SDS011;12791;50.992;13.788;2024-02-26T12:06:44;14.27;;;11.60;;
24663;SDS011;12791;50.992;13.788;2024-02-26T12:09:12;13.70;;;11.90;;
24663;SDS011;12791;50.992;13.788;2024-02-26T12:11:39;14.95;;;11.88;;
24663;SDS011;12791;50.992;13.788;2024-02-26T12:14:08;15.32;;;11.55;;
24663;SDS011;12791;50.992;13.788;2024-02-26T12:16:35;16.40;;;11.55;;
24663;SDS011;12791;50.992;13.788;2024-02-26T12:19:05;16.25;;;11.80;;
24663;SDS011;12791;50.992;13.788;2024-02-26T12:21:33;14.32;;;11.18;;
24663;SDS011;12791;50.992;13.788;2024-02-26T12:24:10;13.02;;;11.18;;
24663;SDS011;12791;50.992;13.788;2024-02-26T12:26:38;14.73;;;11.57;;
24663;SDS011;12791;50.992;13.788;2024-02-26T12:29:04;12.30;;;10.25;;
24663;SDS011;12791;50.992;13.788;2024-02-26T12:31:31;12.10;;;10.75;;
24663;SDS011;12791;50.992;13.788;2024-02-26T12:33:58;16.15;;;12.27;;
24663;SDS011;12791;50.992;13.788;2024-02-26T12:36:27;15.48;;;12.45;;
24663;SDS011;12791;50.992;13.788;2024-02-26T12:38:54;18.33;;;11.32;;
24663;SDS011;12791;50.992;13.788;2024-02-26T12:41:21;13.40;;;11.02;;
24663;SDS011;12791;50.992;13.788;2024-02-26T12:43:48;13.23;;;11.73;;
24663;SDS011;12791;50.992;13.788;2024-02-26T12:46:15;13.60;;;10.82;;
24663;SDS011;12791;50.992;13.788;2024-02-26T12:48:42;15.23;;;11.25;;
24663;SDS011;12791;50.992;13.788;2024-02-26T12:51:09;13.20;;;10.52;;
24663;SDS011;12791;50.992;13.788;2024-02-26T12:53:38;15.15;;;11.85;;
24663;SDS011;12791;50.992;13.788;2024-02-26T12:56:05;13.65;;;11.63;;
24663;SDS011;12791;50.992;13.788;2024-02-26T12:58:33;13.60;;;11.25;;
24663;SDS011;12791;50.992;13.788;2024-02-26T13:01:03;13.43;;;11.32;;
24663;SDS011;12791;50.992;13.788;2024-02-26T13:03:30;13.95;;;10.90;;
24663;SDS011;12791;50.992;13.788;2024-02-26T13:05:58;12.57;;;10.85;;
24663;SDS011;12791;50.992;13.788;2024-02-26T13:08:25;13.15;;;11.02;;
24663;SDS011;12791;50.992;13.788;2024-02-26T13:10:53;13.90;;;11.60;;
24663;SDS011;12791;50.992;13.788;2024-02-26T13:13:19;16.02;;;12.27;;
24663;SDS011;12791;50.992;13.788;2024-02-26T13:15:46;15.32;;;12.27;;
24663;SDS011;12791;50.992;13.788;2024-02-26T13:18:13;12.85;;;11.50;;
24663;SDS011;12791;50.992;13.788;2024-02-26T13:20:41;16.40;;;11.95;;
24663;SDS011;12791;50.992;13.788;2024-02-26T13:23:10;14.18;;;11.38;;
24663;SDS011;12791;50.992;13.788;2024-02-26T13:25:38;12.27;;;10.40;;
24663;SDS011;12791;50.992;13.788;2024-02-26T13:28:07;14.88;;;11.40;;
24663;SDS011;12791;50.992;13.788;2024-02-26T13:30:35;15.20;;;11.23;;
24663;SDS011;12791;50.992;13.788;2024-02-26T13:33:07;14.32;;;11.25;;
24663;SDS011;12791;50.992;13.788;2024-02-26T13:38:01;13.05;;;10.93;;
24663;SDS011;12791;50.992;13.788;2024-02-26T13:40:28;13.57;;;10.73;;
24663;SDS011;12791;50.992;13.788;2024-02-26T13:42:55;12.80;;;10.90;;
24663;SDS011;12791;50.992;13.788;2024-02-26T13:45:23;12.13;;;10.32;;
24663;SDS011;12791;50.992;13.788;2024-02-26T13:47:50;12.30;;;10.65;;
24663;SDS011;12791;50.992;13.788;2024-02-26T13:50:16;12.57;;;10.45;;
24663;SDS011;12791;50.992;13.788;2024-02-26T13:52:46;10.23;;;8.95;;
24663;SDS011;12791;50.992;13.788;2024-02-26T13:55:18;13.35;;;10.05;;
24663;SDS011;12791;50.992;13.788;2024-02-26T13:57:44;11.00;;;9.80;;
24663;SDS011;12791;50.992;13.788;2024-02-26T14:00:12;13.30;;;10.25;;
24663;SDS011;12791;50.992;13.788;2024-02-26T14:02:40;11.50;;;9.07;;
24663;SDS011;12791;50.992;13.788;2024-02-26T14:05:07;12.75;;;9.38;;
24663;SDS011;12791;50.992;13.788;2024-02-26T14:07:34;10.85;;;9.57;;
24663;SDS011;12791;50.992;13.788;2024-02-26T14:10:01;11.65;;;9.90;;
24663;SDS011;12791;50.992;13.788;2024-02-26T14:12:27;11.60;;;10.40;;